createdAt,value
2023-03-25T06:41:14.011Z,1.90
2023-03-25T06:46:16.962Z,1.77
2023-03-25T06:51:19.245Z,1.80
2023-03-25T06:56:21.305Z,1.85
2023-03-25T07:01:23.659Z,1.67
2023-03-25T07:06:26.050Z,1.70
2023-03-25T07:11:30.999Z,1.30
2023-03-25T07:16:33.252Z,1.40
2023-03-25T07:21:35.545Z,1.50
2023-03-25T07:26:37.694Z,1.50
2023-03-25T07:31:41.658Z,1.35
2023-03-25T07:36:43.768Z,1.40
2023-03-25T07:41:47.320Z,1.23
2023-03-25T07:46:49.454Z,1.50
2023-03-25T07:51:51.572Z,1.30
2023-03-25T07:56:54.547Z,1.37
2023-03-25T08:01:56.680Z,1.60
2023-03-25T08:06:58.783Z,1.12
2023-03-25T08:12:00.952Z,1.57
2023-03-25T08:17:05.928Z,1.37
2023-03-25T08:22:08.173Z,1.40
2023-03-25T08:27:15.587Z,1.70
2023-03-25T08:32:18.717Z,1.33
2023-03-25T08:37:21.793Z,1.60
2023-03-25T08:42:23.862Z,1.50
2023-03-25T08:47:26.034Z,1.20
2023-03-25T08:52:28.125Z,1.35
2023-03-25T08:57:30.265Z,1.12
2023-03-25T09:02:32.323Z,1.20
2023-03-25T09:07:34.413Z,1.20
2023-03-25T09:12:37.065Z,1.00
2023-03-25T09:17:39.995Z,1.10
2023-03-25T09:22:42.176Z,1.37
2023-03-25T09:27:44.252Z,1.35
2023-03-25T09:32:46.452Z,1.00
2023-03-25T09:37:51.938Z,1.07
2023-03-25T09:43:24.476Z,1.40
2023-03-25T09:48:42.170Z,0.98
2023-03-25T09:54:26.100Z,1.30
2023-03-25T09:59:44.543Z,1.00
2023-03-25T10:05:04.597Z,1.00
2023-03-25T10:10:19.511Z,1.10
2023-03-25T10:15:56.756Z,1.20
2023-03-25T10:21:11.896Z,1.10
2023-03-25T10:26:29.835Z,1.17
2023-03-25T10:31:37.016Z,1.13
2023-03-25T10:36:49.243Z,1.15
2023-03-25T10:42:00.462Z,1.33
2023-03-25T10:47:08.828Z,1.73
2023-03-25T10:52:11.651Z,1.37
2023-03-25T10:57:21.994Z,1.80
2023-03-25T11:02:27.208Z,1.40
2023-03-25T11:07:41.737Z,1.10
2023-03-25T11:12:47.733Z,1.37
2023-03-25T11:18:02.222Z,0.98
2023-03-25T11:23:20.740Z,1.00
2023-03-25T11:28:38.412Z,1.42
2023-03-25T11:33:43.400Z,1.05
2023-03-25T11:38:51.062Z,1.00
2023-03-25T11:43:53.256Z,1.10
2023-03-25T11:48:55.514Z,2.30
2023-03-25T11:54:00.385Z,2.20
2023-03-25T11:59:03.248Z,1.20
2023-03-25T12:04:12.996Z,1.27
2023-03-25T12:09:15.068Z,1.12
2023-03-25T12:14:24.496Z,0.90
2023-03-25T12:19:48.410Z,1.08
2023-03-25T12:25:12.167Z,0.90
2023-03-25T12:31:02.413Z,1.40
2023-03-25T12:36:19.533Z,1.00
2023-03-25T12:41:44.120Z,1.08
2023-03-25T12:46:48.909Z,0.90
2023-03-25T12:52:22.063Z,1.13
2023-03-25T12:57:32.811Z,0.93
2023-03-25T13:02:53.858Z,0.80
2023-03-25T13:08:14.472Z,0.77
2023-03-25T13:13:21.292Z,1.23
2023-03-25T13:18:30.978Z,0.77
2023-03-25T13:23:36.723Z,1.10
2023-03-25T13:28:51.344Z,0.70
2023-03-25T13:34:01.919Z,0.60
2023-03-25T13:39:12.768Z,0.90
2023-03-25T13:44:20.733Z,1.07
2023-03-25T13:49:44.510Z,0.70
2023-03-25T13:54:56.939Z,1.20
2023-03-25T14:00:28.782Z,0.80
2023-03-25T14:06:01.965Z,0.70
2023-03-25T14:11:26.836Z,0.75
2023-03-25T14:16:38.816Z,0.60
2023-03-25T14:21:44.465Z,0.70
2023-03-25T14:26:50.810Z,0.70
2023-03-25T14:32:17.651Z,0.50
2023-03-25T14:37:26.106Z,0.40
2023-03-25T14:42:30.889Z,0.50
2023-03-25T14:47:35.395Z,0.50
2023-03-25T14:52:43.691Z,0.30
2023-03-25T14:57:47.436Z,0.45
2023-03-25T15:03:03.763Z,0.45
2023-03-25T15:08:06.640Z,0.60
2023-03-25T15:13:30.078Z,0.70
2023-03-25T15:18:34.920Z,0.50
2023-03-25T15:23:40.007Z,0.50
2023-03-25T15:29:01.772Z,0.77
2023-03-25T15:34:13.444Z,0.62
2023-03-25T15:39:39.335Z,0.70
2023-03-25T15:45:00.544Z,0.80
2023-03-25T15:50:23.949Z,0.70
2023-03-25T15:55:38.265Z,0.40
2023-03-25T16:00:50.844Z,0.50
2023-03-25T16:06:03.628Z,2.55
2023-03-25T16:11:20.726Z,1.42
2023-03-25T16:16:22.938Z,1.00
2023-03-25T16:21:29.212Z,0.83
2023-03-25T16:26:44.321Z,1.08
2023-03-25T16:31:52.858Z,0.65
2023-03-25T16:36:56.545Z,0.53
2023-03-25T16:42:26.818Z,0.70
2023-03-25T16:47:33.456Z,0.70
2023-03-25T16:52:37.032Z,0.57
2023-03-25T16:57:40.878Z,0.80
2023-03-25T17:02:44.182Z,0.60
2023-03-25T17:07:50.051Z,0.50
2023-03-25T17:13:11.631Z,0.70
2023-03-25T17:18:16.140Z,0.77
2023-03-25T17:23:22.056Z,0.93
2023-03-25T17:28:59.959Z,1.30
2023-03-25T17:34:24.300Z,0.93
2023-03-25T17:39:29.095Z,1.27
2023-03-25T17:44:39.707Z,1.10
2023-03-25T17:49:41.990Z,1.35
2023-03-25T17:54:44.059Z,1.87
2023-03-25T17:59:47.272Z,1.17
2023-03-25T18:04:49.382Z,1.30
2023-03-25T18:09:52.264Z,1.30
2023-03-25T18:14:54.337Z,0.85
2023-03-25T18:19:56.382Z,0.90
2023-03-25T18:24:58.462Z,1.10
2023-03-25T18:30:00.541Z,1.30
2023-03-25T18:35:02.609Z,1.00
2023-03-25T18:40:19.312Z,0.85
2023-03-25T18:45:23.270Z,1.30
2023-03-25T18:50:37.786Z,1.13
2023-03-25T18:55:42.204Z,1.10
2023-03-25T19:00:46.227Z,0.80
2023-03-25T19:05:48.327Z,1.00
2023-03-25T19:10:50.623Z,1.13
2023-03-25T19:15:52.865Z,1.15
2023-03-25T19:20:55.384Z,1.80
2023-03-25T19:25:59.732Z,1.60
2023-03-25T19:31:01.905Z,1.37
2023-03-25T19:36:04.595Z,1.50
2023-03-25T19:41:09.460Z,1.13
2023-03-25T19:46:12.026Z,1.50
2023-03-25T19:51:14.143Z,1.33
2023-03-25T19:56:16.419Z,1.15
2023-03-25T20:01:19.068Z,1.47
2023-03-25T20:06:21.499Z,1.20
2023-03-25T20:11:23.648Z,1.20
2023-03-25T20:16:27.915Z,1.10
2023-03-25T20:21:30.154Z,1.00
2023-03-25T20:26:33.374Z,0.82
2023-03-25T20:31:35.590Z,0.90
2023-03-25T20:36:38.330Z,0.90
